sensor_id;sensor_type;location;lat;lon;timestamp;P1;durP1;ratioP1;P2;durP2;ratioP2
12425;SDS011;6277;49.824;9.562;2023-10-09T00:00:50;3.05;;;1.63;;
12425;SDS011;6277;49.824;9.562;2023-10-09T00:03:19;2.63;;;1.40;;
12425;SDS011;6277;49.824;9.562;2023-10-09T00:05:48;2.75;;;1.30;;
12425;SDS011;6277;49.824;9.562;2023-10-09T00:08:17;2.70;;;1.60;;
12425;SDS011;6277;49.824;9.562;2023-10-09T00:10:47;2.40;;;1.52;;
12425;SDS011;6277;49.824;9.562;2023-10-09T00:13:25;3.13;;;1.98;;
12425;SDS011;6277;49.824;9.562;2023-10-09T00:15:58;2.15;;;1.42;;
12425;SDS011;6277;49.824;9.562;2023-10-09T00:18:33;4.88;;;1.65;;
12425;SDS011;6277;49.824;9.562;2023-10-09T00:20:59;1.77;;;1.38;;
12425;SDS011;6277;49.824;9.562;2023-10-09T00:23:27;1.85;;;1.40;;
12425;SDS011;6277;49.824;9.562;2023-10-09T00:25:53;1.88;;;1.40;;
12425;SDS011;6277;49.824;9.562;2023-10-09T00:28:37;1.75;;;1.40;;
12425;SDS011;6277;49.824;9.562;2023-10-09T00:31:09;2.13;;;1.52;;
12425;SDS011;6277;49.824;9.562;2023-10-09T00:33:43;3.08;;;1.40;;
12425;SDS011;6277;49.824;9.562;2023-10-09T00:36:09;1.40;;;1.25;;
12425;SDS011;6277;49.824;9.562;2023-10-09T00:38:38;1.67;;;1.30;;
12425;SDS011;6277;49.824;9.562;2023-10-09T00:41:16;1.88;;;1.30;;
12425;SDS011;6277;49.824;9.562;2023-10-09T00:43:46;2.08;;;1.52;;
12425;SDS011;6277;49.824;9.562;2023-10-09T00:46:14;2.13;;;1.40;;
12425;SDS011;6277;49.824;9.562;2023-10-09T00:48:44;3.33;;;1.70;;
12425;SDS011;6277;49.824;9.562;2023-10-09T00:51:12;2.58;;;1.65;;
12425;SDS011;6277;49.824;9.562;2023-10-09T00:53:48;2.45;;;1.42;;
12425;SDS011;6277;49.824;9.562;2023-10-09T00:56:18;2.10;;;1.55;;
12425;SDS011;6277;49.824;9.562;2023-10-09T00:58:54;2.25;;;1.38;;
12425;SDS011;6277;49.824;9.562;2023-10-09T01:01:24;3.33;;;1.55;;
12425;SDS011;6277;49.824;9.562;2023-10-09T01:04:00;2.90;;;1.40;;
12425;SDS011;6277;49.824;9.562;2023-10-09T01:06:37;3.20;;;1.50;;
12425;SDS011;6277;49.824;9.562;2023-10-09T01:09:09;2.03;;;1.55;;
12425;SDS011;6277;49.824;9.562;2023-10-09T01:11:39;2.20;;;1.58;;
12425;SDS011;6277;49.824;9.562;2023-10-09T01:14:24;3.40;;;1.83;;
12425;SDS011;6277;49.824;9.562;2023-10-09T01:16:49;2.17;;;1.42;;
12425;SDS011;6277;49.824;9.562;2023-10-09T01:19:18;2.38;;;1.73;;
12425;SDS011;6277;49.824;9.562;2023-10-09T01:24:19;3.00;;;1.50;;
12425;SDS011;6277;49.824;9.562;2023-10-09T01:26:45;2.80;;;1.88;;
12425;SDS011;6277;49.824;9.562;2023-10-09T01:29:12;2.00;;;1.73;;
12425;SDS011;6277;49.824;9.562;2023-10-09T01:31:44;2.75;;;2.00;;
12425;SDS011;6277;49.824;9.562;2023-10-09T01:34:17;2.42;;;1.77;;
12425;SDS011;6277;49.824;9.562;2023-10-09T01:36:44;1.75;;;1.48;;
12425;SDS011;6277;49.824;9.562;2023-10-09T01:39:14;2.83;;;1.65;;
12425;SDS011;6277;49.824;9.562;2023-10-09T01:41:49;3.60;;;1.80;;
12425;SDS011;6277;49.824;9.562;2023-10-09T01:44:17;2.38;;;1.88;;
12425;SDS011;6277;49.824;9.562;2023-10-09T01:46:44;2.47;;;2.05;;
12425;SDS011;6277;49.824;9.562;2023-10-09T01:49:11;2.53;;;1.80;;
12425;SDS011;6277;49.824;9.562;2023-10-09T01:51:46;3.15;;;1.83;;
12425;SDS011;6277;49.824;9.562;2023-10-09T01:54:15;3.20;;;1.85;;
12425;SDS011;6277;49.824;9.562;2023-10-09T01:56:58;4.30;;;1.88;;
12425;SDS011;6277;49.824;9.562;2023-10-09T01:59:30;3.65;;;1.92;;
12425;SDS011;6277;49.824;9.562;2023-10-09T02:01:56;3.10;;;1.73;;
12425;SDS011;6277;49.824;9.562;2023-10-09T02:04:23;2.45;;;1.52;;
12425;SDS011;6277;49.824;9.562;2023-10-09T02:06:49;2.67;;;1.98;;
12425;SDS011;6277;49.824;9.562;2023-10-09T02:09:17;4.05;;;2.10;;
12425;SDS011;6277;49.824;9.562;2023-10-09T02:11:45;2.45;;;1.63;;
12425;SDS011;6277;49.824;9.562;2023-10-09T02:14:10;2.78;;;1.95;;
12425;SDS011;6277;49.824;9.562;2023-10-09T02:16:46;2.83;;;1.88;;
12425;SDS011;6277;49.824;9.562;2023-10-09T02:19:28;2.75;;;1.90;;
12425;SDS011;6277;49.824;9.562;2023-10-09T02:21:59;3.22;;;1.98;;
12425;SDS011;6277;49.824;9.562;2023-10-09T02:24:36;4.10;;;2.00;;
12425;SDS011;6277;49.824;9.562;2023-10-09T02:27:14;4.40;;;2.20;;
12425;SDS011;6277;49.824;9.562;2023-10-09T02:30:05;3.05;;;2.20;;
12425;SDS011;6277;49.824;9.562;2023-10-09T02:32:43;2.45;;;1.85;;
12425;SDS011;6277;49.824;9.562;2023-10-09T02:35:13;3.53;;;1.83;;
12425;SDS011;6277;49.824;9.562;2023-10-09T02:37:46;2.85;;;1.75;;
12425;SDS011;6277;49.824;9.562;2023-10-09T02:40:12;3.00;;;1.88;;
12425;SDS011;6277;49.824;9.562;2023-10-09T02:42:47;1.90;;;1.50;;
12425;SDS011;6277;49.824;9.562;2023-10-09T02:45:14;23.60;;;2.40;;
12425;SDS011;6277;49.824;9.562;2023-10-09T02:47:42;32.63;;;3.75;;
12425;SDS011;6277;49.824;9.562;2023-10-09T02:50:08;14.02;;;2.20;;
12425;SDS011;6277;49.824;9.562;2023-10-09T02:52:34;23.02;;;2.10;;
12425;SDS011;6277;49.824;9.562;2023-10-09T02:55:05;32.05;;;2.10;;
12425;SDS011;6277;49.824;9.562;2023-10-09T02:57:53;32.72;;;3.00;;
12425;SDS011;6277;49.824;9.562;2023-10-09T03:00:35;7.63;;;1.70;;
12425;SDS011;6277;49.824;9.562;2023-10-09T03:03:02;6.18;;;1.15;;
12425;SDS011;6277;49.824;9.562;2023-10-09T03:05:31;23.27;;;1.67;;
12425;SDS011;6277;49.824;9.562;2023-10-09T03:07:57;29.20;;;2.05;;
12425;SDS011;6277;49.824;9.562;2023-10-09T03:10:24;53.55;;;2.67;;
12425;SDS011;6277;49.824;9.562;2023-10-09T03:12:50;32.20;;;2.95;;
12425;SDS011;6277;49.824;9.562;2023-10-09T03:15:18;13.63;;;2.60;;
12425;SDS011;6277;49.824;9.562;2023-10-09T03:17:45;21.35;;;4.82;;
12425;SDS011;6277;49.824;9.562;2023-10-09T03:20:18;10.70;;;2.40;;
12425;SDS011;6277;49.824;9.562;2023-10-09T03:23:11;11.77;;;1.85;;
12425;SDS011;6277;49.824;9.562;2023-10-09T03:25:39;43.65;;;2.50;;
12425;SDS011;6277;49.824;9.562;2023-10-09T03:28:05;10.32;;;1.40;;
12425;SDS011;6277;49.824;9.562;2023-10-09T03:30:31;39.90;;;2.83;;
12425;SDS011;6277;49.824;9.562;2023-10-09T03:32:58;23.70;;;1.55;;
12425;SDS011;6277;49.824;9.562;2023-10-09T03:35:25;10.13;;;1.20;;
12425;SDS011;6277;49.824;9.562;2023-10-09T03:37:58;21.65;;;1.83;;
12425;SDS011;6277;49.824;9.562;2023-10-09T03:40:37;17.65;;;1.50;;
12425;SDS011;6277;49.824;9.562;2023-10-09T03:43:07;18.77;;;1.60;;
12425;SDS011;6277;49.824;9.562;2023-10-09T03:45:35;16.13;;;1.83;;
12425;SDS011;6277;49.824;9.562;2023-10-09T03:48:03;41.88;;;2.70;;
12425;SDS011;6277;49.824;9.562;2023-10-09T03:50:37;13.05;;;1.13;;
12425;SDS011;6277;49.824;9.562;2023-10-09T03:53:03;16.42;;;1.88;;
12425;SDS011;6277;49.824;9.562;2023-10-09T03:55:32;3.75;;;0.60;;
12425;SDS011;6277;49.824;9.562;2023-10-09T03:57:58;5.97;;;1.30;;
12425;SDS011;6277;49.824;9.562;2023-10-09T04:00:24;28.42;;;2.38;;
12425;SDS011;6277;49.824;9.562;2023-10-09T04:02:53;14.70;;;1.27;;
12425;SDS011;6277;49.824;9.562;2023-10-09T04:05:19;1.83;;;1.27;;
12425;SDS011;6277;49.824;9.562;2023-10-09T04:07:45;1.65;;;1.30;;
12425;SDS011;6277;49.824;9.562;2023-10-09T04:10:11;1.83;;;1.48;;
12425;SDS011;6277;49.824;9.562;2023-10-09T04:12:55;1.63;;;1.23;;
12425;SDS011;6277;49.824;9.562;2023-10-09T04:15:23;1.88;;;1.48;;
12425;SDS011;6277;49.824;9.562;2023-10-09T04:17:49;1.38;;;1.15;;
12425;SDS011;6277;49.824;9.562;2023-10-09T04:20:17;1.70;;;1.38;;
12425;SDS011;6277;49.824;9.562;2023-10-09T04:22:42;2.05;;;1.30;;
12425;SDS011;6277;49.824;9.562;2023-10-09T04:25:21;2.75;;;1.35;;
12425;SDS011;6277;49.824;9.562;2023-10-09T04:28:06;2.33;;;1.50;;
12425;SDS011;6277;49.824;9.562;2023-10-09T04:30:47;1.90;;;1.50;;
12425;SDS011;6277;49.824;9.562;2023-10-09T04:33:18;2.03;;;1.42;;
12425;SDS011;6277;49.824;9.562;2023-10-09T04:36:13;2.30;;;1.67;;
12425;SDS011;6277;49.824;9.562;2023-10-09T04:38:44;2.08;;;1.63;;
12425;SDS011;6277;49.824;9.562;2023-10-09T04:41:28;2.35;;;1.90;;
12425;SDS011;6277;49.824;9.562;2023-10-09T04:44:06;1.73;;;1.50;;
12425;SDS011;6277;49.824;9.562;2023-10-09T04:46:41;6.57;;;4.00;;
12425;SDS011;6277;49.824;9.562;2023-10-09T04:49:10;7.82;;;5.20;;
12425;SDS011;6277;49.824;9.562;2023-10-09T04:51:54;4.85;;;3.75;;
12425;SDS011;6277;49.824;9.562;2023-10-09T04:54:43;3.38;;;2.70;;
12425;SDS011;6277;49.824;9.562;2023-10-09T04:57:44;2.22;;;2.03;;
12425;SDS011;6277;49.824;9.562;2023-10-09T05:00:25;2.45;;;2.03;;
12425;SDS011;6277;49.824;9.562;2023-10-09T05:02:52;2.75;;;2.10;;
12425;SDS011;6277;49.824;9.562;2023-10-09T05:05:21;3.10;;;2.30;;
12425;SDS011;6277;49.824;9.562;2023-10-09T05:08:03;2.13;;;1.83;;
12425;SDS011;6277;49.824;9.562;2023-10-09T05:10:44;1.90;;;1.60;;
12425;SDS011;6277;49.824;9.562;2023-10-09T05:13:36;2.25;;;1.73;;
12425;SDS011;6277;49.824;9.562;2023-10-09T05:16:05;2.28;;;1.58;;
12425;SDS011;6277;49.824;9.562;2023-10-09T05:18:43;1.70;;;1.30;;
12425;SDS011;6277;49.824;9.562;2023-10-09T05:21:42;1.80;;;1.30;;
12425;SDS011;6277;49.824;9.562;2023-10-09T05:24:07;2.78;;;1.45;;
12425;SDS011;6277;49.824;9.562;2023-10-09T05:29:12;2.85;;;1.88;;
12425;SDS011;6277;49.824;9.562;2023-10-09T05:31:50;2.15;;;1.65;;
12425;SDS011;6277;49.824;9.562;2023-10-09T05:34:35;2.05;;;1.77;;
12425;SDS011;6277;49.824;9.562;2023-10-09T05:37:19;2.90;;;1.98;;
12425;SDS011;6277;49.824;9.562;2023-10-09T05:39:50;2.70;;;2.10;;
12425;SDS011;6277;49.824;9.562;2023-10-09T05:42:26;3.22;;;2.10;;
12425;SDS011;6277;49.824;9.562;2023-10-09T05:47:46;2.50;;;1.70;;
12425;SDS011;6277;49.824;9.562;2023-10-09T05:50:21;3.00;;;2.03;;
12425;SDS011;6277;49.824;9.562;2023-10-09T05:52:51;3.35;;;2.00;;
12425;SDS011;6277;49.824;9.562;2023-10-09T05:55:24;3.78;;;1.98;;
12425;SDS011;6277;49.824;9.562;2023-10-09T05:58:09;2.78;;;2.00;;
12425;SDS011;6277;49.824;9.562;2023-10-09T06:00:53;2.47;;;1.80;;
12425;SDS011;6277;49.824;9.562;2023-10-09T06:03:38;2.25;;;1.75;;
12425;SDS011;6277;49.824;9.562;2023-10-09T06:06:37;2.80;;;1.85;;
12425;SDS011;6277;49.824;9.562;2023-10-09T06:09:10;2.40;;;1.60;;
12425;SDS011;6277;49.824;9.562;2023-10-09T06:11:40;1.95;;;1.63;;
12425;SDS011;6277;49.824;9.562;2023-10-09T06:14:19;2.30;;;1.80;;
12425;SDS011;6277;49.824;9.562;2023-10-09T06:17:08;5.03;;;1.63;;
12425;SDS011;6277;49.824;9.562;2023-10-09T06:19:36;2.28;;;1.45;;
12425;SDS011;6277;49.824;9.562;2023-10-09T06:22:08;2.33;;;1.92;;
12425;SDS011;6277;49.824;9.562;2023-10-09T06:24:37;2.38;;;1.70;;
12425;SDS011;6277;49.824;9.562;2023-10-09T06:27:19;2.53;;;1.80;;
12425;SDS011;6277;49.824;9.562;2023-10-09T06:29:54;2.13;;;1.50;;
12425;SDS011;6277;49.824;9.562;2023-10-09T06:32:41;1.77;;;1.50;;
12425;SDS011;6277;49.824;9.562;2023-10-09T06:35:25;3.08;;;1.63;;
12425;SDS011;6277;49.824;9.562;2023-10-09T06:37:58;2.95;;;1.75;;
12425;SDS011;6277;49.824;9.562;2023-10-09T06:40:31;2.53;;;1.52;;
12425;SDS011;6277;49.824;9.562;2023-10-09T06:43:17;2.80;;;1.88;;
12425;SDS011;6277;49.824;9.562;2023-10-09T06:45:46;2.13;;;1.75;;
12425;SDS011;6277;49.824;9.562;2023-10-09T06:48:19;2.65;;;1.50;;
12425;SDS011;6277;49.824;9.562;2023-10-09T06:51:07;3.25;;;1.60;;
12425;SDS011;6277;49.824;9.562;2023-10-09T06:53:52;2.90;;;1.85;;
12425;SDS011;6277;49.824;9.562;2023-10-09T06:59:09;3.20;;;1.80;;
12425;SDS011;6277;49.824;9.562;2023-10-09T07:01:49;2.53;;;1.75;;
12425;SDS011;6277;49.824;9.562;2023-10-09T07:04:36;2.75;;;1.80;;
12425;SDS011;6277;49.824;9.562;2023-10-09T07:07:02;2.92;;;1.92;;
12425;SDS011;6277;49.824;9.562;2023-10-09T07:09:45;3.17;;;1.63;;
12425;SDS011;6277;49.824;9.562;2023-10-09T07:12:33;2.30;;;1.50;;
12425;SDS011;6277;49.824;9.562;2023-10-09T07:15:02;3.75;;;1.75;;
12425;SDS011;6277;49.824;9.562;2023-10-09T07:17:49;2.65;;;1.92;;
12425;SDS011;6277;49.824;9.562;2023-10-09T07:20:17;4.03;;;2.25;;
12425;SDS011;6277;49.824;9.562;2023-10-09T07:23:02;3.67;;;1.92;;
12425;SDS011;6277;49.824;9.562;2023-10-09T07:25:49;2.58;;;1.88;;
12425;SDS011;6277;49.824;9.562;2023-10-09T07:28:22;2.83;;;2.15;;
12425;SDS011;6277;49.824;9.562;2023-10-09T07:31:07;3.00;;;2.08;;
12425;SDS011;6277;49.824;9.562;2023-10-09T07:33:42;2.38;;;1.65;;
12425;SDS011;6277;49.824;9.562;2023-10-09T07:36:21;2.50;;;1.75;;
12425;SDS011;6277;49.824;9.562;2023-10-09T07:39:00;2.85;;;1.92;;
12425;SDS011;6277;49.824;9.562;2023-10-09T07:41:30;2.03;;;1.63;;
12425;SDS011;6277;49.824;9.562;2023-10-09T07:43:56;2.55;;;1.60;;
12425;SDS011;6277;49.824;9.562;2023-10-09T07:46:22;3.40;;;1.77;;
12425;SDS011;6277;49.824;9.562;2023-10-09T07:49:06;3.40;;;1.75;;
12425;SDS011;6277;49.824;9.562;2023-10-09T07:51:37;2.47;;;1.98;;
12425;SDS011;6277;49.824;9.562;2023-10-09T07:54:03;2.53;;;1.83;;
12425;SDS011;6277;49.824;9.562;2023-10-09T07:56:38;4.00;;;2.50;;
12425;SDS011;6277;49.824;9.562;2023-10-09T07:59:12;2.90;;;2.10;;
12425;SDS011;6277;49.824;9.562;2023-10-09T08:01:42;4.88;;;2.25;;
12425;SDS011;6277;49.824;9.562;2023-10-09T08:04:26;3.15;;;1.90;;
12425;SDS011;6277;49.824;9.562;2023-10-09T08:07:13;5.07;;;1.90;;
12425;SDS011;6277;49.824;9.562;2023-10-09T08:10:05;3.28;;;2.00;;
12425;SDS011;6277;49.824;9.562;2023-10-09T08:12:44;3.05;;;2.00;;
12425;SDS011;6277;49.824;9.562;2023-10-09T08:15:22;2.72;;;1.90;;
12425;SDS011;6277;49.824;9.562;2023-10-09T08:17:55;4.85;;;2.20;;
12425;SDS011;6277;49.824;9.562;2023-10-09T08:20:24;3.72;;;2.42;;
12425;SDS011;6277;49.824;9.562;2023-10-09T08:23:01;3.42;;;2.17;;
12425;SDS011;6277;49.824;9.562;2023-10-09T08:25:30;3.15;;;1.90;;
12425;SDS011;6277;49.824;9.562;2023-10-09T08:28:00;3.05;;;2.22;;
12425;SDS011;6277;49.824;9.562;2023-10-09T08:30:53;2.55;;;1.80;;
12425;SDS011;6277;49.824;9.562;2023-10-09T08:33:19;2.92;;;1.88;;
12425;SDS011;6277;49.824;9.562;2023-10-09T08:35:50;3.70;;;2.00;;
12425;SDS011;6277;49.824;9.562;2023-10-09T08:38:20;2.33;;;1.83;;
12425;SDS011;6277;49.824;9.562;2023-10-09T08:40:49;3.47;;;2.20;;
12425;SDS011;6277;49.824;9.562;2023-10-09T08:43:19;2.92;;;2.03;;
12425;SDS011;6277;49.824;9.562;2023-10-09T08:48:27;3.10;;;1.95;;
12425;SDS011;6277;49.824;9.562;2023-10-09T08:50:54;3.63;;;2.40;;
12425;SDS011;6277;49.824;9.562;2023-10-09T08:53:21;3.20;;;2.03;;
12425;SDS011;6277;49.824;9.562;2023-10-09T08:55:48;4.20;;;1.92;;
12425;SDS011;6277;49.824;9.562;2023-10-09T08:58:16;4.07;;;1.95;;
12425;SDS011;6277;49.824;9.562;2023-10-09T09:00:45;3.42;;;2.00;;
12425;SDS011;6277;49.824;9.562;2023-10-09T09:03:13;4.28;;;2.30;;
12425;SDS011;6277;49.824;9.562;2023-10-09T09:05:46;2.50;;;2.08;;
12425;SDS011;6277;49.824;9.562;2023-10-09T09:08:23;4.22;;;1.80;;
12425;SDS011;6277;49.824;9.562;2023-10-09T09:11:00;2.55;;;1.88;;
12425;SDS011;6277;49.824;9.562;2023-10-09T09:13:41;3.65;;;2.00;;
12425;SDS011;6277;49.824;9.562;2023-10-09T09:18:53;3.25;;;1.80;;
12425;SDS011;6277;49.824;9.562;2023-10-09T09:21:30;3.95;;;1.77;;
12425;SDS011;6277;49.824;9.562;2023-10-09T09:26:41;2.72;;;1.70;;
12425;SDS011;6277;49.824;9.562;2023-10-09T09:29:11;3.83;;;1.75;;
12425;SDS011;6277;49.824;9.562;2023-10-09T09:31:37;2.80;;;1.90;;
12425;SDS011;6277;49.824;9.562;2023-10-09T09:34:06;3.15;;;1.98;;
12425;SDS011;6277;49.824;9.562;2023-10-09T09:37:00;3.28;;;1.80;;
12425;SDS011;6277;49.824;9.562;2023-10-09T09:39:28;1.98;;;1.58;;
12425;SDS011;6277;49.824;9.562;2023-10-09T09:41:55;2.60;;;2.00;;
12425;SDS011;6277;49.824;9.562;2023-10-09T09:44:22;3.25;;;2.33;;
12425;SDS011;6277;49.824;9.562;2023-10-09T09:46:55;3.53;;;2.65;;
12425;SDS011;6277;49.824;9.562;2023-10-09T09:49:25;2.80;;;2.10;;
12425;SDS011;6277;49.824;9.562;2023-10-09T09:51:56;4.65;;;2.20;;
12425;SDS011;6277;49.824;9.562;2023-10-09T09:54:23;3.47;;;1.73;;
12425;SDS011;6277;49.824;9.562;2023-10-09T09:56:49;5.93;;;2.40;;
12425;SDS011;6277;49.824;9.562;2023-10-09T09:59:18;4.65;;;2.03;;
12425;SDS011;6277;49.824;9.562;2023-10-09T10:01:47;3.33;;;2.20;;
12425;SDS011;6277;49.824;9.562;2023-10-09T10:04:31;3.33;;;2.10;;
12425;SDS011;6277;49.824;9.562;2023-10-09T10:07:00;4.22;;;2.10;;
12425;SDS011;6277;49.824;9.562;2023-10-09T10:09:37;3.08;;;2.00;;
12425;SDS011;6277;49.824;9.562;2023-10-09T10:12:04;3.42;;;2.10;;
12425;SDS011;6277;49.824;9.562;2023-10-09T10:14:55;7.97;;;2.65;;
12425;SDS011;6277;49.824;9.562;2023-10-09T10:17:32;8.18;;;2.47;;
12425;SDS011;6277;49.824;9.562;2023-10-09T10:20:24;4.22;;;2.15;;
12425;SDS011;6277;49.824;9.562;2023-10-09T10:22:50;6.63;;;2.35;;
12425;SDS011;6277;49.824;9.562;2023-10-09T10:25:42;4.22;;;2.20;;
12425;SDS011;6277;49.824;9.562;2023-10-09T10:28:24;5.93;;;2.20;;
12425;SDS011;6277;49.824;9.562;2023-10-09T10:30:56;5.53;;;2.28;;
12425;SDS011;6277;49.824;9.562;2023-10-09T10:33:25;4.28;;;2.10;;
12425;SDS011;6277;49.824;9.562;2023-10-09T10:35:52;4.57;;;2.25;;
12425;SDS011;6277;49.824;9.562;2023-10-09T10:38:33;7.43;;;3.00;;
12425;SDS011;6277;49.824;9.562;2023-10-09T10:41:17;5.28;;;2.40;;
12425;SDS011;6277;49.824;9.562;2023-10-09T10:43:47;4.28;;;2.33;;
12425;SDS011;6277;49.824;9.562;2023-10-09T10:46:19;6.07;;;2.70;;
12425;SDS011;6277;49.824;9.562;2023-10-09T10:48:49;4.15;;;2.50;;
12425;SDS011;6277;49.824;9.562;2023-10-09T10:51:24;5.80;;;2.60;;
12425;SDS011;6277;49.824;9.562;2023-10-09T10:53:59;3.67;;;1.90;;
12425;SDS011;6277;49.824;9.562;2023-10-09T10:56:46;5.07;;;2.10;;
12425;SDS011;6277;49.824;9.562;2023-10-09T10:59:16;3.60;;;1.98;;
12425;SDS011;6277;49.824;9.562;2023-10-09T11:01:48;4.32;;;2.30;;
12425;SDS011;6277;49.824;9.562;2023-10-09T11:04:39;3.95;;;2.22;;
12425;SDS011;6277;49.824;9.562;2023-10-09T11:07:05;4.18;;;2.13;;
12425;SDS011;6277;49.824;9.562;2023-10-09T11:15:07;5.68;;;2.22;;
12425;SDS011;6277;49.824;9.562;2023-10-09T11:18:00;3.63;;;2.20;;
12425;SDS011;6277;49.824;9.562;2023-10-09T11:20:42;5.05;;;2.10;;
12425;SDS011;6277;49.824;9.562;2023-10-09T11:23:21;5.60;;;2.40;;
12425;SDS011;6277;49.824;9.562;2023-10-09T11:26:01;3.78;;;2.10;;
12425;SDS011;6277;49.824;9.562;2023-10-09T11:31:40;4.03;;;2.05;;
12425;SDS011;6277;49.824;9.562;2023-10-09T11:34:19;3.58;;;1.92;;
12425;SDS011;6277;49.824;9.562;2023-10-09T11:36:54;3.50;;;2.30;;
12425;SDS011;6277;49.824;9.562;2023-10-09T11:39:25;4.28;;;2.30;;
12425;SDS011;6277;49.824;9.562;2023-10-09T11:44:41;4.72;;;2.10;;
12425;SDS011;6277;49.824;9.562;2023-10-09T11:47:10;3.70;;;2.15;;
12425;SDS011;6277;49.824;9.562;2023-10-09T11:49:51;4.15;;;2.20;;
12425;SDS011;6277;49.824;9.562;2023-10-09T11:52:27;5.32;;;2.42;;
12425;SDS011;6277;49.824;9.562;2023-10-09T11:54:56;4.97;;;2.20;;
12425;SDS011;6277;49.824;9.562;2023-10-09T11:57:23;4.15;;;2.10;;
12425;SDS011;6277;49.824;9.562;2023-10-09T11:59:55;4.28;;;2.28;;
12425;SDS011;6277;49.824;9.562;2023-10-09T12:02:22;3.38;;;2.30;;
12425;SDS011;6277;49.824;9.562;2023-10-09T12:04:48;4.80;;;2.22;;
12425;SDS011;6277;49.824;9.562;2023-10-09T12:07:14;3.78;;;2.50;;
12425;SDS011;6277;49.824;9.562;2023-10-09T12:09:40;3.45;;;2.25;;
12425;SDS011;6277;49.824;9.562;2023-10-09T12:12:06;4.55;;;2.70;;
12425;SDS011;6277;49.824;9.562;2023-10-09T12:14:34;4.15;;;2.42;;
12425;SDS011;6277;49.824;9.562;2023-10-09T12:17:04;4.78;;;2.22;;
12425;SDS011;6277;49.824;9.562;2023-10-09T12:19:36;4.85;;;2.50;;
12425;SDS011;6277;49.824;9.562;2023-10-09T12:22:03;4.93;;;2.35;;
12425;SDS011;6277;49.824;9.562;2023-10-09T12:24:31;3.78;;;2.40;;
12425;SDS011;6277;49.824;9.562;2023-10-09T12:26:58;7.18;;;2.67;;
12425;SDS011;6277;49.824;9.562;2023-10-09T12:29:24;6.47;;;2.35;;
12425;SDS011;6277;49.824;9.562;2023-10-09T12:31:54;3.88;;;2.30;;
12425;SDS011;6277;49.824;9.562;2023-10-09T12:34:26;4.47;;;2.20;;
12425;SDS011;6277;49.824;9.562;2023-10-09T12:36:52;4.32;;;2.30;;
12425;SDS011;6277;49.824;9.562;2023-10-09T12:39:19;4.70;;;2.35;;
12425;SDS011;6277;49.824;9.562;2023-10-09T12:41:46;7.07;;;2.88;;
12425;SDS011;6277;49.824;9.562;2023-10-09T12:44:11;4.63;;;2.47;;
12425;SDS011;6277;49.824;9.562;2023-10-09T12:46:40;4.80;;;2.50;;
12425;SDS011;6277;49.824;9.562;2023-10-09T12:49:07;3.90;;;2.80;;
12425;SDS011;6277;49.824;9.562;2023-10-09T12:51:33;4.22;;;2.63;;
12425;SDS011;6277;49.824;9.562;2023-10-09T12:53:58;5.22;;;2.42;;
12425;SDS011;6277;49.824;9.562;2023-10-09T12:56:26;5.45;;;2.50;;
12425;SDS011;6277;49.824;9.562;2023-10-09T12:59:01;5.43;;;2.85;;
12425;SDS011;6277;49.824;9.562;2023-10-09T13:01:29;4.38;;;2.42;;
12425;SDS011;6277;49.824;9.562;2023-10-09T13:04:00;5.85;;;2.30;;
12425;SDS011;6277;49.824;9.562;2023-10-09T13:06:26;3.78;;;2.40;;
12425;SDS011;6277;49.824;9.562;2023-10-09T13:08:52;5.43;;;2.90;;
12425;SDS011;6277;49.824;9.562;2023-10-09T13:11:21;5.40;;;3.00;;
12425;SDS011;6277;49.824;9.562;2023-10-09T13:13:46;5.20;;;2.72;;
12425;SDS011;6277;49.824;9.562;2023-10-09T13:16:19;4.18;;;2.60;;
12425;SDS011;6277;49.824;9.562;2023-10-09T13:18:50;5.00;;;2.42;;
12425;SDS011;6277;49.824;9.562;2023-10-09T13:21:17;6.40;;;2.50;;
12425;SDS011;6277;49.824;9.562;2023-10-09T13:23:43;6.03;;;2.42;;
12425;SDS011;6277;49.824;9.562;2023-10-09T13:26:12;4.57;;;2.00;;
12425;SDS011;6277;49.824;9.562;2023-10-09T13:28:45;4.55;;;2.80;;
12425;SDS011;6277;49.824;9.562;2023-10-09T13:31:14;5.93;;;2.72;;
12425;SDS011;6277;49.824;9.562;2023-10-09T13:33:41;4.88;;;2.58;;
12425;SDS011;6277;49.824;9.562;2023-10-09T13:36:07;4.32;;;2.50;;
12425;SDS011;6277;49.824;9.562;2023-10-09T13:38:47;4.90;;;2.40;;
12425;SDS011;6277;49.824;9.562;2023-10-09T13:41:12;5.15;;;2.45;;
12425;SDS011;6277;49.824;9.562;2023-10-09T13:43:42;5.10;;;2.50;;
12425;SDS011;6277;49.824;9.562;2023-10-09T13:46:09;5.55;;;2.50;;
12425;SDS011;6277;49.824;9.562;2023-10-09T13:48:36;5.25;;;2.63;;
12425;SDS011;6277;49.824;9.562;2023-10-09T13:51:06;4.80;;;2.55;;
12425;SDS011;6277;49.824;9.562;2023-10-09T13:53:34;5.22;;;2.70;;
12425;SDS011;6277;49.824;9.562;2023-10-09T13:56:16;4.53;;;2.88;;
12425;SDS011;6277;49.824;9.562;2023-10-09T13:58:51;4.72;;;2.83;;
12425;SDS011;6277;49.824;9.562;2023-10-09T14:01:18;5.97;;;2.90;;
12425;SDS011;6277;49.824;9.562;2023-10-09T14:03:54;4.35;;;2.70;;
12425;SDS011;6277;49.824;9.562;2023-10-09T14:06:21;4.63;;;2.72;;
12425;SDS011;6277;49.824;9.562;2023-10-09T14:08:56;5.70;;;2.85;;
12425;SDS011;6277;49.824;9.562;2023-10-09T14:11:22;6.25;;;3.03;;
12425;SDS011;6277;49.824;9.562;2023-10-09T14:13:47;5.35;;;2.70;;
12425;SDS011;6277;49.824;9.562;2023-10-09T14:16:13;5.07;;;2.67;;
12425;SDS011;6277;49.824;9.562;2023-10-09T14:18:55;4.78;;;2.55;;
12425;SDS011;6277;49.824;9.562;2023-10-09T14:21:26;4.70;;;2.70;;
12425;SDS011;6277;49.824;9.562;2023-10-09T14:23:54;5.07;;;2.80;;
12425;SDS011;6277;49.824;9.562;2023-10-09T14:26:24;3.95;;;2.20;;
12425;SDS011;6277;49.824;9.562;2023-10-09T14:28:51;3.85;;;2.40;;
12425;SDS011;6277;49.824;9.562;2023-10-09T14:31:18;5.35;;;2.50;;
12425;SDS011;6277;49.824;9.562;2023-10-09T14:33:47;4.97;;;2.83;;
12425;SDS011;6277;49.824;9.562;2023-10-09T14:36:17;5.85;;;2.97;;
12425;SDS011;6277;49.824;9.562;2023-10-09T14:38:43;4.82;;;2.70;;
12425;SDS011;6277;49.824;9.562;2023-10-09T14:41:11;4.93;;;2.88;;
12425;SDS011;6277;49.824;9.562;2023-10-09T14:43:38;4.85;;;2.60;;
12425;SDS011;6277;49.824;9.562;2023-10-09T14:46:04;4.82;;;2.88;;
12425;SDS011;6277;49.824;9.562;2023-10-09T14:48:36;6.97;;;3.17;;
12425;SDS011;6277;49.824;9.562;2023-10-09T14:51:03;7.18;;;3.05;;
12425;SDS011;6277;49.824;9.562;2023-10-09T14:53:32;5.78;;;2.90;;
12425;SDS011;6277;49.824;9.562;2023-10-09T14:55:59;4.15;;;2.30;;
12425;SDS011;6277;49.824;9.562;2023-10-09T14:58:26;6.53;;;2.53;;
12425;SDS011;6277;49.824;9.562;2023-10-09T15:00:55;4.97;;;2.60;;
12425;SDS011;6277;49.824;9.562;2023-10-09T15:03:21;4.13;;;2.45;;
12425;SDS011;6277;49.824;9.562;2023-10-09T15:05:48;5.60;;;2.50;;
12425;SDS011;6277;49.824;9.562;2023-10-09T15:08:13;3.45;;;2.40;;
12425;SDS011;6277;49.824;9.562;2023-10-09T15:10:49;5.43;;;2.92;;
12425;SDS011;6277;49.824;9.562;2023-10-09T15:13:16;4.22;;;2.38;;
12425;SDS011;6277;49.824;9.562;2023-10-09T15:15:43;5.28;;;2.40;;
12425;SDS011;6277;49.824;9.562;2023-10-09T15:18:10;5.32;;;2.47;;
12425;SDS011;6277;49.824;9.562;2023-10-09T15:20:39;4.55;;;2.33;;
12425;SDS011;6277;49.824;9.562;2023-10-09T15:23:06;4.65;;;2.60;;
12425;SDS011;6277;49.824;9.562;2023-10-09T15:25:34;4.28;;;2.75;;
12425;SDS011;6277;49.824;9.562;2023-10-09T15:28:03;5.13;;;2.58;;
12425;SDS011;6277;49.824;9.562;2023-10-09T15:30:29;3.75;;;2.42;;
12425;SDS011;6277;49.824;9.562;2023-10-09T15:32:56;4.30;;;2.30;;
12425;SDS011;6277;49.824;9.562;2023-10-09T15:35:22;4.43;;;2.30;;
12425;SDS011;6277;49.824;9.562;2023-10-09T15:37:48;5.15;;;2.08;;
12425;SDS011;6277;49.824;9.562;2023-10-09T15:40:17;4.93;;;2.28;;
12425;SDS011;6277;49.824;9.562;2023-10-09T15:42:49;4.60;;;2.30;;
12425;SDS011;6277;49.824;9.562;2023-10-09T15:45:15;4.63;;;2.65;;
12425;SDS011;6277;49.824;9.562;2023-10-09T15:47:41;4.00;;;2.58;;
12425;SDS011;6277;49.824;9.562;2023-10-09T15:50:07;3.85;;;2.35;;
12425;SDS011;6277;49.824;9.562;2023-10-09T15:52:34;4.20;;;2.50;;
12425;SDS011;6277;49.824;9.562;2023-10-09T15:54:59;5.80;;;2.65;;
12425;SDS011;6277;49.824;9.562;2023-10-09T15:57:26;6.35;;;3.13;;
12425;SDS011;6277;49.824;9.562;2023-10-09T15:59:51;4.05;;;2.42;;
12425;SDS011;6277;49.824;9.562;2023-10-09T16:02:17;4.93;;;3.03;;